METAR Data
IDs: Format: Raw Decoded Include TAF

Data at: 1829 UTC 26 Oct 2021

PAKX 261815Z AUTO 00000KT 10SM BKN037 OVC046 00/M05 A2934 RMK AO2
PAKX 261755Z AUTO 00000KT 10SM OVC037 00/M05 A2934 RMK AO2
PAKX 261735Z AUTO 00000KT 10SM OVC035 M01/M05 A2933 RMK AO2
PAKX 261715Z AUTO 31003KT 10SM OVC035 00/M05 A2933 RMK AO2
PAKX 261655Z AUTO 25004KT 10SM BKN037 OVC047 M01/M05 A2932 RMK AO2
PAKX 261635Z AUTO 00000KT 10SM BKN037 OVC047 M01/M05 A2931 RMK AO2
PAKX 261615Z AUTO 28003KT 10SM OVC037 M01/M05 A2931 RMK AO2
PAKX 261555Z AUTO 16003KT 10SM BKN039 OVC045 M01/M05 A2930 RMK AO2
PAKX 261535Z AUTO 22003KT 10SM SCT042 BKN100 M01/M05 A2929 RMK AO2
PAKX 261515Z AUTO 00000KT 10SM SCT040 SCT046 OVC100 M01/M06 A2928 RMK AO2
PAKX 261455Z AUTO 00000KT 10SM SCT040 OVC100 M01/M06 A2928 RMK AO2
PAKX 261435Z AUTO 09003KT 10SM BKN110 00/M05 A2927 RMK AO2
PAKX 261415Z AUTO 07004KT 10SM SCT110 00/M05 A2927 RMK AO2
PAKX 261355Z AUTO 09003KT 10SM CLR 00/M05 A2926 RMK AO2
PAKX 261335Z AUTO 00000KT 10SM CLR 00/M05 A2926 RMK AO2
PAKX 261315Z AUTO 06003KT 10SM CLR 00/M05 A2926 RMK AO2
PAKX 261135Z AUTO 06003KT 10SM OVC120 00/M04 A2923 RMK AO2
PAKX 260835Z AUTO 08004KT 10SM SCT040 BKN090 OVC120 01/M03 A2919 RMK AO2
PAKX 260815Z AUTO 08004KT 10SM BKN090 OVC120 00/M04 A2918 RMK AO2
PAKX 260755Z AUTO 07005KT 10SM OVC090 00/M04 A2918 RMK AO2
PAKX 260735Z AUTO 09005KT 10SM BKN090 OVC110 00/M03 A2918 RMK AO2
PAKX 260515Z AUTO 08006KT 10SM OVC110 01/M03 A2915 RMK AO2
PAKX 260455Z AUTO 08005KT 10SM OVC110 01/M04 A2915 RMK AO2
PAKX 260435Z AUTO 10005KT 10SM OVC110 01/M04 A2915 RMK AO2
PAKX 260315Z AUTO 07007G15KT 040V130 10SM CLR 01/M04 A2913 RMK AO2
PAKX 260255Z AUTO 09005KT 10SM CLR 01/M03 A2913 RMK AO2
PAKX 260235Z AUTO 08006KT 10SM CLR 01/M03 A2913 RMK AO2
PAKX 260155Z AUTO 07005KT 10SM CLR 02/M03 A2913 RMK AO2
PAKX 260135Z AUTO 09004KT 10SM CLR 02/M03 A2913 RMK AO2
PAKX 260115Z AUTO 08008KT 040V100 10SM CLR 03/M03 A2913 RMK AO2
PAKX 260055Z AUTO 09004KT 10SM CLR 03/M03 A2912 RMK AO2
PAKX 260035Z AUTO 07004KT 10SM CLR 03/M03 A2912 RMK AO2
PAKX 260015Z AUTO 07006KT 10SM CLR 03/M03 A2912 RMK AO2
PAKX 252355Z AUTO 08004KT 10SM CLR 03/M02 A2912 RMK AO2
PAKX 252335Z AUTO 07004KT 10SM CLR 03/M02 A2912 RMK AO2
PAKX 252315Z AUTO 00000KT 10SM CLR 03/M02 A2912 RMK AO2
PAKX 252255Z AUTO 00000KT 10SM CLR 03/M02 A2912 RMK AO2
PAKX 252235Z AUTO 06005KT 10SM CLR 03/M02 A2912 RMK AO2
PAKX 252215Z AUTO 05004KT 10SM CLR 02/M02 A2913 RMK AO2
PAKX 252155Z AUTO 05006KT 10SM CLR 02/M02 A2913 RMK AO2
PAKX 252135Z AUTO 00000KT 10SM CLR 02/M02 A2913 RMK AO2
PAKX 252115Z AUTO 07005KT 10SM CLR 02/M02 A2913 RMK AO2
PAKX 252055Z AUTO 07004KT 10SM CLR 01/M02 A2913 RMK AO2
PAKX 252035Z AUTO 05003KT 10SM CLR 01/M01 A2914 RMK AO2
PAKX 252015Z AUTO 00000KT 10SM CLR 01/M01 A2914 RMK AO2
PAKX 251955Z AUTO 00000KT 10SM SCT016 00/00 A2914 RMK AO2
PAKX 251935Z AUTO 00000KT 10SM CLR 00/00 A2914 RMK AO2
PAKX 251915Z AUTO 00000KT 10SM SCT014 00/00 A2914 RMK AO2
PAKX 251855Z AUTO 00000KT 10SM BKN014 M01/M01 A2914 RMK AO2
PAKX 251835Z AUTO 00000KT 10SM SCT014 00/00 A2914 RMK AO2
PAKX 251815Z AUTO 00000KT 10SM BKN014 00/00 A2914 RMK AO2
PAKX 251755Z AUTO 00000KT 10SM OVC014 00/00 A2913 RMK AO2
PAKX 251735Z AUTO 00000KT 10SM OVC012 00/00 A2914 RMK AO2
PAKX 251715Z AUTO 00000KT 10SM OVC010 00/00 A2914 RMK AO2
PAKX 251655Z AUTO 00000KT 10SM OVC012 00/00 A2914 RMK AO2
PAKX 251635Z AUTO 00000KT 10SM BKN009 OVC014 00/00 A2914 RMK AO2
PAKX 251615Z AUTO 00000KT 10SM OVC013 00/00 A2914 RMK AO2
PAKX 251555Z AUTO 00000KT 10SM OVC013 00/00 A2913 RMK AO2
PAKX 251535Z AUTO 00000KT 10SM BKN013 BKN060 M01/M01 A2913 RMK AO2
PAKX 251515Z AUTO 00000KT 10SM BKN013 BKN060 00/00 A2913 RMK AO2
PAKX 251455Z AUTO 00000KT 10SM BKN011 OVC065 00/00 A2914 RMK AO2
PAKX 251435Z AUTO 00000KT 10SM OVC011 00/00 A2915 RMK AO2
PAKX 251415Z AUTO 00000KT 10SM BKN011 OVC018 00/00 A2915 RMK AO2
PAKX 251355Z AUTO 00000KT 10SM BKN013 BKN019 OVC065 00/00 A2915 RMK AO2
PAKX 251335Z AUTO 00000KT 10SM OVC011 00/00 A2916 RMK AO2
PAKX 251315Z AUTO 00000KT 10SM OVC011 00/00 A2917 RMK AO2
PAKX 251035Z AUTO 00000KT 10SM OVC007 00/00 A2921 RMK AO2
PAKX 251015Z AUTO 00000KT 10SM OVC007 00/00 A2921 RMK AO2
PAKX 250955Z AUTO 00000KT 10SM OVC007 00/00 A2922 RMK AO2
PAKX 250935Z AUTO 00000KT 10SM OVC007 00/00 A2922 RMK AO2
PAKX 250915Z AUTO 00000KT 10SM OVC007 00/00 A2923 RMK AO2
PAKX 250855Z AUTO 00000KT 10SM OVC007 01/00 A2923 RMK AO2
PAKX 250835Z AUTO 00000KT 10SM OVC007 01/00 A2924 RMK AO2
PAKX 250815Z AUTO 00000KT 10SM OVC007 00/00 A2924 RMK AO2
PAKX 250735Z AUTO 00000KT 10SM BKN007 OVC014 00/00 A2925 RMK AO2
PAKX 250715Z AUTO 00000KT 10SM OVC007 00/00 A2925 RMK AO2